Time,TemperatureF,DewpointF,PressureIn,WindDirection,WindDirectionDegrees,WindSpeedMPH,WindSpeedGustMPH,Humidity,HourlyPrecipIn,Conditions,Clouds,dailyrainin,SoftwareType,DateUTC
2013-03-29 00:09:00,50.4,49.0,30.08,SE,130,0.0,0.0,95,0.00,,,0.00,weatherlink.com 1.10,2013-03-29 07:09:00,
2013-03-29 00:24:00,50.9,50.0,30.08,SE,130,0.0,0.0,96,0.00,,,0.00,weatherlink.com 1.10,2013-03-29 07:24:00,
2013-03-29 00:39:00,51.7,51.0,30.08,SE,130,0.0,0.0,97,0.00,,,0.00,weatherlink.com 1.10,2013-03-29 07:39:00,
2013-03-29 00:54:00,51.5,50.0,30.08,SE,130,0.0,0.0,96,0.00,,,0.00,weatherlink.com 1.10,2013-03-29 07:54:00,
2013-03-29 01:09:00,50.9,50.0,30.08,SE,130,0.0,0.0,96,0.00,,,0.00,weatherlink.com 1.10,2013-03-29 08:09:00,
2013-03-29 01:24:00,50.3,49.0,30.08,SE,130,0.0,0.0,96,0.00,,,0.00,weatherlink.com 1.10,2013-03-29 08:24:00,
2013-03-29 01:39:00,51.1,50.0,30.08,SE,130,0.0,0.0,97,0.00,,,0.00,weatherlink.com 1.10,2013-03-29 08:39:00,
2013-03-29 01:54:00,50.8,50.0,30.08,SE,130,0.0,0.0,96,0.00,,,0.00,weatherlink.com 1.10,2013-03-29 08:54:00,
2013-03-29 02:09:00,50.3,49.0,30.08,SE,130,0.0,0.0,96,0.00,,,0.00,weatherlink.com 1.10,2013-03-29 09:09:00,
2013-03-29 02:24:00,50.2,49.0,30.08,SE,130,0.0,0.0,96,0.00,,,0.00,weatherlink.com 1.10,2013-03-29 09:24:00,
2013-03-29 02:39:00,49.9,49.0,30.08,SE,130,0.0,0.0,96,0.00,,,0.00,weatherlink.com 1.10,2013-03-29 09:39:00,
2013-03-29 02:54:00,49.7,49.0,30.08,SE,130,0.0,0.0,96,0.00,,,0.00,weatherlink.com 1.10,2013-03-29 09:54:00,
2013-03-29 03:09:00,49.3,48.0,30.07,SE,130,0.0,0.0,96,0.00,,,0.00,weatherlink.com 1.10,2013-03-29 10:09:00,
2013-03-29 03:24:00,49.8,49.0,30.07,SE,130,0.0,0.0,97,0.00,,,0.00,weatherlink.com 1.10,2013-03-29 10:24:00,
2013-03-29 03:39:00,49.9,49.0,30.07,South,186,0.0,0.0,97,0.00,,,0.00,weatherlink.com 1.10,2013-03-29 10:39:00,
2013-03-29 03:54:00,49.9,49.0,30.07,South,186,0.0,0.0,97,0.00,,,0.00,weatherlink.com 1.10,2013-03-29 10:54:00,
2013-03-29 04:09:00,49.8,49.0,30.07,South,186,0.0,0.0,97,0.00,,,0.00,weatherlink.com 1.10,2013-03-29 11:09:00,
2013-03-29 04:24:00,49.1,48.0,30.07,South,186,0.0,0.0,96,0.00,,,0.00,weatherlink.com 1.10,2013-03-29 11:24:00,
2013-03-29 04:39:00,48.5,48.0,30.07,South,186,0.0,0.0,97,0.00,,,0.00,weatherlink.com 1.10,2013-03-29 11:39:00,
2013-03-29 04:54:00,47.9,47.0,30.07,South,186,0.0,0.0,96,0.00,,,0.00,weatherlink.com 1.10,2013-03-29 11:54:00,
2013-03-29 05:09:00,47.7,47.0,30.07,South,186,0.0,0.0,97,0.00,,,0.00,weatherlink.com 1.10,2013-03-29 12:09:00,
2013-03-29 05:24:00,48.0,47.0,30.07,South,186,0.0,0.0,97,0.00,,,0.00,weatherlink.com 1.10,2013-03-29 12:24:00,
2013-03-29 05:39:00,48.1,47.0,30.07,South,186,0.0,0.0,97,0.00,,,0.00,weatherlink.com 1.10,2013-03-29 12:39:00,
2013-03-29 05:54:00,48.1,47.0,30.07,South,186,0.0,0.0,97,0.00,,,0.00,weatherlink.com 1.10,2013-03-29 12:54:00,
2013-03-29 06:09:00,47.9,47.0,30.08,South,186,0.0,0.0,97,0.00,,,0.00,weatherlink.com 1.10,2013-03-29 13:09:00,
2013-03-29 06:24:00,47.9,47.0,30.08,South,186,0.0,0.0,97,0.00,,,0.00,weatherlink.com 1.10,2013-03-29 13:24:00,
2013-03-29 06:39:00,48.1,47.0,30.08,South,186,0.0,0.0,97,0.00,,,0.00,weatherlink.com 1.10,2013-03-29 13:39:00,
2013-03-29 06:54:00,48.0,47.0,30.08,South,186,0.0,0.0,97,0.00,,,0.00,weatherlink.com 1.10,2013-03-29 13:54:00,
2013-03-29 07:09:00,48.0,47.0,30.08,South,186,0.0,0.0,97,0.00,,,0.00,weatherlink.com 1.10,2013-03-29 14:09:00,
2013-03-29 07:24:00,48.2,47.0,30.08,South,186,0.0,0.0,97,0.00,,,0.00,weatherlink.com 1.10,2013-03-29 14:24:00,
2013-03-29 07:39:00,48.3,48.0,30.09,South,186,0.0,0.0,97,0.00,,,0.00,weatherlink.com 1.10,2013-03-29 14:39:00,
2013-03-29 07:54:00,49.0,49.0,30.09,South,186,0.0,0.0,98,0.00,,,0.00,weatherlink.com 1.10,2013-03-29 14:54:00,
2013-03-29 08:09:00,50.4,50.0,30.09,South,186,0.0,0.0,98,0.00,,,0.00,weatherlink.com 1.10,2013-03-29 15:09:00,
2013-03-29 08:25:00,51.5,51.0,30.09,South,186,0.0,0.0,98,0.00,,,0.00,weatherlink.com 1.10,2013-03-29 15:25:00,
2013-03-29 08:40:00,52.2,52.0,30.09,South,186,0.0,0.0,98,0.00,,,0.00,weatherlink.com 1.10,2013-03-29 15:40:00,
2013-03-29 08:55:00,52.8,52.0,30.09,South,186,0.0,0.0,98,0.00,,,0.00,weatherlink.com 1.10,2013-03-29 15:55:00,
2013-03-29 09:10:00,53.3,53.0,30.09,South,186,0.0,0.0,98,0.00,,,0.00,weatherlink.com 1.10,2013-03-29 16:10:00,
2013-03-29 09:25:00,53.9,53.0,30.09,NNW,328,0.0,1.0,98,0.00,,,0.00,weatherlink.com 1.10,2013-03-29 16:25:00,
2013-03-29 09:40:00,56.7,53.0,30.09,NW,304,0.0,2.0,86,0.00,,,0.00,weatherlink.com 1.10,2013-03-29 16:40:00,
2013-03-29 09:55:00,58.5,53.0,30.08,North,1,0.0,3.0,82,0.00,,,0.00,weatherlink.com 1.10,2013-03-29 16:55:00,
2013-03-29 10:10:00,59.7,53.0,30.09,WNW,300,1.0,2.0,78,0.00,,,0.00,weatherlink.com 1.10,2013-03-29 17:10:00,
2013-03-29 10:25:00,61.0,53.0,30.08,WSW,243,0.0,3.0,76,0.00,,,0.00,weatherlink.com 1.10,2013-03-29 17:25:00,
2013-03-29 10:40:00,62.7,54.0,30.08,West,262,0.0,3.0,72,0.00,,,0.00,weatherlink.com 1.10,2013-03-29 17:40:00,
2013-03-29 10:55:00,64.2,54.0,30.08,NNW,338,0.0,2.0,70,0.00,,,0.00,weatherlink.com 1.10,2013-03-29 17:55:00,
2013-03-29 11:10:00,64.8,54.0,30.08,NNW,343,1.0,2.0,68,0.00,,,0.00,weatherlink.com 1.10,2013-03-29 18:10:00,
2013-03-29 11:25:00,64.7,54.0,30.08,NNE,14,0.0,4.0,69,0.00,,,0.00,weatherlink.com 1.10,2013-03-29 18:25:00,
2013-03-29 11:40:00,66.1,55.0,30.08,WNW,284,0.0,3.0,68,0.00,,,0.00,weatherlink.com 1.10,2013-03-29 18:40:00,
2013-03-29 11:55:00,67.5,55.0,30.08,NNW,338,1.0,3.0,64,0.00,,,0.00,weatherlink.com 1.10,2013-03-29 18:55:00,
2013-03-29 12:10:00,68.5,55.0,30.07,West,281,0.0,3.0,63,0.00,,,0.00,weatherlink.com 1.10,2013-03-29 19:10:00,
2013-03-29 12:25:00,69.4,55.0,30.07,WNW,303,0.0,5.0,61,0.00,,,0.00,weatherlink.com 1.10,2013-03-29 19:25:00,
2013-03-29 12:40:00,70.5,55.0,30.07,NNW,339,1.0,4.0,58,0.00,,,0.00,weatherlink.com 1.10,2013-03-29 19:40:00,
2013-03-29 12:55:00,71.6,56.0,30.07,NW,319,1.0,5.0,59,0.00,,,0.00,weatherlink.com 1.10,2013-03-29 19:55:00,
2013-03-29 13:10:00,72.4,55.0,30.06,NW,308,0.0,3.0,55,0.00,,,0.00,weatherlink.com 1.10,2013-03-29 20:10:00,
2013-03-29 13:28:00,73.5,55.0,30.06,NW,314,0.0,4.0,52,0.00,,,0.00,weatherlink.com 1.10,2013-03-29 20:28:00,
2013-03-29 13:41:00,73.0,56.0,30.05,NNW,335,0.0,3.0,56,0.00,,,0.00,weatherlink.com 1.10,2013-03-29 20:41:00,
2013-03-29 13:56:00,73.6,56.0,30.05,ESE,103,0.0,4.0,54,0.00,,,0.00,weatherlink.com 1.10,2013-03-29 20:56:00,
2013-03-29 14:11:00,73.8,56.0,30.04,SW,236,1.0,4.0,54,0.00,,,0.00,weatherlink.com 1.10,2013-03-29 21:11:00,
2013-03-29 14:26:00,72.4,55.0,30.04,NNW,344,1.0,1.0,55,0.00,,,0.00,weatherlink.com 1.10,2013-03-29 21:26:00,
2013-03-29 14:41:00,72.9,56.0,30.04,SW,229,0.0,5.0,56,0.00,,,0.00,weatherlink.com 1.10,2013-03-29 21:41:00,
2013-03-29 14:56:00,73.4,55.0,30.04,SE,141,0.0,5.0,52,0.00,,,0.00,weatherlink.com 1.10,2013-03-29 21:56:00,
2013-03-29 15:11:00,73.2,54.0,30.03,SSE,154,1.0,5.0,52,0.00,,,0.00,weatherlink.com 1.10,2013-03-29 22:11:00,
2013-03-29 15:26:00,73.7,54.0,30.03,NNW,342,1.0,5.0,51,0.00,,,0.00,weatherlink.com 1.10,2013-03-29 22:26:00,
2013-03-29 16:11:00,74.8,53.0,30.02,SE,127,2.0,4.0,47,0.00,,,0.00,weatherlink.com 1.10,2013-03-29 23:11:00,
2013-03-29 16:26:00,73.4,54.0,30.02,SE,146,0.0,5.0,51,0.00,,,0.00,weatherlink.com 1.10,2013-03-29 23:26:00,
2013-03-29 16:41:00,72.6,54.0,30.02,SE,143,0.0,4.0,52,0.00,,,0.00,weatherlink.com 1.10,2013-03-29 23:41:00,
2013-03-29 16:56:00,72.5,53.0,30.01,South,171,0.0,3.0,51,0.00,,,0.00,weatherlink.com 1.10,2013-03-29 23:56:00,
2013-03-29 17:11:00,72.4,53.0,30.02,SSE,149,2.0,6.0,51,0.00,,,0.00,weatherlink.com 1.10,2013-03-30 00:11:00,
2013-03-29 17:26:00,70.2,53.0,30.01,SE,130,1.0,5.0,55,0.00,,,0.00,weatherlink.com 1.10,2013-03-30 00:26:00,
2013-03-29 17:41:00,68.9,52.0,30.01,SE,125,0.0,4.0,56,0.00,,,0.00,weatherlink.com 1.10,2013-03-30 00:41:00,
2013-03-29 17:56:00,67.5,52.0,30.01,SE,129,0.0,4.0,58,0.00,,,0.00,weatherlink.com 1.10,2013-03-30 00:56:00,
2013-03-29 18:11:00,66.8,52.0,30.02,NNE,12,0.0,3.0,60,0.00,,,0.00,weatherlink.com 1.10,2013-03-30 01:11:00,
2013-03-29 18:26:00,66.2,52.0,30.02,SSE,150,2.0,4.0,60,0.00,,,0.00,weatherlink.com 1.10,2013-03-30 01:26:00,
2013-03-29 18:56:00,65.0,51.0,30.01,SE,139,1.0,2.0,61,0.00,,,0.00,weatherlink.com 1.10,2013-03-30 01:56:00,
2013-03-29 19:11:00,64.6,52.0,30.01,ESE,118,1.0,2.0,63,0.00,,,0.00,weatherlink.com 1.10,2013-03-30 02:11:00,
2013-03-29 19:26:00,64.1,51.0,30.02,SE,129,0.0,2.0,63,0.00,,,0.00,weatherlink.com 1.10,2013-03-30 02:26:00,
2013-03-29 19:41:00,63.5,51.0,30.02,SE,129,0.0,2.0,65,0.00,,,0.00,weatherlink.com 1.10,2013-03-30 02:41:00,
2013-03-29 19:56:00,62.8,53.0,30.02,SW,230,0.0,1.0,71,0.00,,,0.00,weatherlink.com 1.10,2013-03-30 02:56:00,
2013-03-29 20:11:00,61.6,53.0,30.02,SSW,212,0.0,1.0,74,0.00,,,0.00,weatherlink.com 1.10,2013-03-30 03:11:00,
2013-03-29 20:26:00,60.4,53.0,30.02,WSW,251,0.0,1.0,76,0.00,,,0.00,weatherlink.com 1.10,2013-03-30 03:26:00,
2013-03-29 20:41:00,59.5,53.0,30.03,NW,316,0.0,1.0,78,0.00,,,0.00,weatherlink.com 1.10,2013-03-30 03:41:00,
2013-03-29 20:56:00,58.7,53.0,30.03,NW,312,0.0,0.0,80,0.00,,,0.00,weatherlink.com 1.10,2013-03-30 03:56:00,
2013-03-29 21:11:00,58.4,53.0,30.04,NW,312,0.0,0.0,81,0.00,,,0.00,weatherlink.com 1.10,2013-03-30 04:11:00,
2013-03-29 21:26:00,58.2,52.0,30.04,WNW,285,0.0,1.0,81,0.00,,,0.00,weatherlink.com 1.10,2013-03-30 04:26:00,
2013-03-29 21:41:00,58.1,53.0,30.04,WNW,285,0.0,0.0,82,0.00,,,0.00,weatherlink.com 1.10,2013-03-30 04:41:00,
2013-03-29 21:56:00,57.8,52.0,30.04,WSW,244,0.0,2.0,82,0.00,,,0.00,weatherlink.com 1.10,2013-03-30 04:56:00,
2013-03-29 22:11:00,57.4,52.0,30.05,WSW,255,0.0,0.0,83,0.00,,,0.00,weatherlink.com 1.10,2013-03-30 05:11:00,
2013-03-29 22:26:00,57.2,52.0,30.05,SE,136,0.0,1.0,83,0.00,,,0.00,weatherlink.com 1.10,2013-03-30 05:26:00,
2013-03-29 22:41:00,57.0,52.0,30.05,SE,136,0.0,0.0,84,0.00,,,0.00,weatherlink.com 1.10,2013-03-30 05:41:00,
2013-03-29 22:56:00,57.0,53.0,30.05,WSW,248,0.0,1.0,85,0.00,,,0.00,weatherlink.com 1.10,2013-03-30 05:56:00,
2013-03-29 23:11:00,56.7,53.0,30.05,WSW,248,0.0,0.0,87,0.00,,,0.00,weatherlink.com 1.10,2013-03-30 06:11:00,
2013-03-29 23:26:00,56.2,53.0,30.05,South,184,0.0,0.0,88,0.00,,,0.00,weatherlink.com 1.10,2013-03-30 06:26:00,
2013-03-29 23:41:00,57.0,52.0,30.05,SE,128,0.0,2.0,83,0.00,,,0.00,weatherlink.com 1.10,2013-03-30 06:41:00,
2013-03-29 23:56:00,57.4,52.0,30.05,SE,128,0.0,0.0,83,0.00,,,0.00,weatherlink.com 1.10,2013-03-30 06:56:00,